createdAt,value
2018-09-15T00:02:00.345Z,69.00
2018-09-15T00:04:27.031Z,68.90
2018-09-15T00:06:53.983Z,69.00
2018-09-15T00:09:20.613Z,69.00
2018-09-15T00:11:48.352Z,69.00
2018-09-15T00:14:15.388Z,68.90
2018-09-15T00:16:42.219Z,69.00
2018-09-15T00:19:08.925Z,69.10
2018-09-15T00:21:35.619Z,69.10
2018-09-15T00:24:02.329Z,69.10
2018-09-15T00:26:29.124Z,69.10
2018-09-15T00:28:55.812Z,69.10
2018-09-15T00:31:22.570Z,69.20
2018-09-15T00:33:49.221Z,69.10
2018-09-15T00:36:15.994Z,69.20
2018-09-15T00:38:42.875Z,69.20
2018-09-15T00:41:09.567Z,69.20
2018-09-15T00:43:36.368Z,68.40
2018-09-15T00:46:03.021Z,69.20
2018-09-15T00:48:29.705Z,69.20
2018-09-15T00:50:57.019Z,69.20
2018-09-15T00:53:23.693Z,69.30
2018-09-15T00:55:50.352Z,69.20
2018-09-15T00:58:17.710Z,69.20
2018-09-15T01:00:44.440Z,69.10
2018-09-15T01:03:11.138Z,69.20
2018-09-15T01:05:37.830Z,69.20
2018-09-15T01:08:04.466Z,69.30
2018-09-15T01:10:31.118Z,69.30
2018-09-15T01:12:57.783Z,69.30
2018-09-15T01:15:24.587Z,69.20
2018-09-15T01:17:51.350Z,69.30
2018-09-15T01:20:17.990Z,69.30
2018-09-15T01:22:44.672Z,69.30
2018-09-15T01:25:11.994Z,69.70
2018-09-15T01:27:39.408Z,69.30
2018-09-15T01:30:06.160Z,69.30
2018-09-15T01:32:32.820Z,69.30
2018-09-15T01:34:59.514Z,69.40
2018-09-15T01:37:26.166Z,69.40
2018-09-15T01:39:53.004Z,69.50
2018-09-15T01:42:19.723Z,69.40
2018-09-15T01:44:46.540Z,69.30
2018-09-15T01:47:13.231Z,69.40
2018-09-15T01:49:40.070Z,69.40
2018-09-15T01:52:06.884Z,69.40
2018-09-15T01:54:34.368Z,69.50
2018-09-15T01:57:01.038Z,69.50
2018-09-15T01:59:27.794Z,69.50
2018-09-15T02:01:54.532Z,69.40
2018-09-15T02:04:21.248Z,69.50
2018-09-15T02:06:48.063Z,69.50
2018-09-15T02:09:14.868Z,69.50
2018-09-15T02:11:41.876Z,69.50
2018-09-15T02:14:08.705Z,69.50
2018-09-15T02:16:36.361Z,69.40
2018-09-15T02:19:03.055Z,69.50
2018-09-15T02:21:29.721Z,69.50
2018-09-15T02:23:56.410Z,69.50
2018-09-15T02:26:23.144Z,69.50
2018-09-15T02:28:50.062Z,69.50
2018-09-15T02:31:16.857Z,69.50
2018-09-15T02:33:44.353Z,69.60
2018-09-15T02:36:11.056Z,69.60
2018-09-15T02:38:37.789Z,69.60
2018-09-15T02:41:04.527Z,69.60
2018-09-15T02:43:31.452Z,69.50
2018-09-15T02:45:58.302Z,69.60
2018-09-15T02:48:24.989Z,69.60
2018-09-15T02:50:51.874Z,69.70
2018-09-15T02:53:18.586Z,69.60
2018-09-15T02:55:45.453Z,69.70
2018-09-15T02:58:12.150Z,69.60
2018-09-15T03:00:38.854Z,69.70
2018-09-15T03:03:05.492Z,69.70
2018-09-15T03:05:32.336Z,69.70
2018-09-15T03:07:59.079Z,69.60
2018-09-15T03:10:26.155Z,69.70
2018-09-15T03:12:52.925Z,69.80
2018-09-15T03:15:19.619Z,69.80
2018-09-15T03:17:46.325Z,69.80
2018-09-15T03:20:13.079Z,69.70
2018-09-15T03:22:40.477Z,69.80
2018-09-15T03:25:07.169Z,70.10
2018-09-15T03:27:33.826Z,69.70
2018-09-15T03:30:00.613Z,69.70
2018-09-15T03:32:28.451Z,69.80
2018-09-15T03:34:56.131Z,69.70
2018-09-15T03:37:22.803Z,69.70
2018-09-15T03:39:49.477Z,69.60
2018-09-15T03:42:16.313Z,69.80
2018-09-15T03:44:42.995Z,69.90
2018-09-15T03:47:09.669Z,69.80
2018-09-15T03:49:36.330Z,69.70
2018-09-15T03:52:03.544Z,69.80
2018-09-15T03:54:30.347Z,69.80
2018-09-15T03:56:57.159Z,69.80
2018-09-15T03:59:23.829Z,69.80
2018-09-15T04:01:50.501Z,69.90
2018-09-15T04:04:17.321Z,69.80
2018-09-15T04:06:44.786Z,69.80
2018-09-15T04:09:11.778Z,70.00
2018-09-15T04:11:38.836Z,69.80
2018-09-15T04:14:05.566Z,69.90
2018-09-15T04:16:32.350Z,70.00
2018-09-15T04:18:59.873Z,69.90
2018-09-15T04:21:26.744Z,69.90
2018-09-15T04:23:53.422Z,69.90
2018-09-15T04:26:20.092Z,69.90
2018-09-15T04:28:47.358Z,69.90
2018-09-15T04:31:14.346Z,69.90
2018-09-15T04:33:41.292Z,70.00
2018-09-15T04:36:08.056Z,69.90
2018-09-15T04:38:34.721Z,69.80
2018-09-15T04:41:01.929Z,70.00
2018-09-15T04:43:29.303Z,70.00
2018-09-15T04:45:55.989Z,69.80
2018-09-15T04:48:22.640Z,70.00
2018-09-15T04:50:49.453Z,70.00
2018-09-15T04:53:16.361Z,70.00
2018-09-15T04:55:43.179Z,69.90
2018-09-15T04:58:10.021Z,70.10
2018-09-15T05:00:36.815Z,70.40
2018-09-15T05:03:03.507Z,70.60
2018-09-15T05:05:30.540Z,70.00
2018-09-15T05:07:57.984Z,70.10
2018-09-15T05:10:24.966Z,70.10
2018-09-15T05:12:51.662Z,70.10
2018-09-15T05:15:18.497Z,70.00
2018-09-15T05:17:45.313Z,70.00
2018-09-15T05:20:13.781Z,70.10
2018-09-15T05:22:41.169Z,70.10
2018-09-15T05:25:07.989Z,70.20
2018-09-15T05:27:34.950Z,70.10
2018-09-15T05:30:01.793Z,70.20
2018-09-15T05:32:28.720Z,70.10
2018-09-15T05:34:55.442Z,70.10
2018-09-15T05:37:22.143Z,70.10
2018-09-15T05:39:49.614Z,70.10
2018-09-15T05:42:16.473Z,70.10
2018-09-15T05:44:43.271Z,70.10
2018-09-15T05:47:09.985Z,70.20
2018-09-15T05:49:37.075Z,70.20
2018-09-15T05:52:04.369Z,70.30
2018-09-15T05:54:31.182Z,70.10
2018-09-15T05:56:57.907Z,70.10
2018-09-15T05:59:25.224Z,70.20
2018-09-15T06:01:52.096Z,70.10
2018-09-15T06:04:19.339Z,70.20
2018-09-15T06:06:46.931Z,70.20
2018-09-15T06:09:13.725Z,70.20
2018-09-15T06:11:41.120Z,70.20
2018-09-15T06:14:07.794Z,70.30
2018-09-15T06:16:35.234Z,70.20
2018-09-15T06:19:02.724Z,70.20
2018-09-15T06:21:29.613Z,70.20
2018-09-15T06:23:56.354Z,70.30
2018-09-15T06:26:23.291Z,70.30
2018-09-15T06:28:50.118Z,70.20
2018-09-15T06:31:17.045Z,70.30
2018-09-15T06:33:43.910Z,70.30
2018-09-15T06:36:10.797Z,71.00
2018-09-15T06:38:37.658Z,70.30
2018-09-15T06:41:04.650Z,70.30
2018-09-15T06:43:32.040Z,70.30
2018-09-15T06:45:58.809Z,70.30
2018-09-15T06:48:25.766Z,70.30
2018-09-15T06:50:52.532Z,70.30
2018-09-15T06:53:19.180Z,70.30
2018-09-15T06:55:46.039Z,70.30
2018-09-15T06:58:12.895Z,70.30
2018-09-15T07:00:40.293Z,70.30
2018-09-15T07:03:07.082Z,70.30
2018-09-15T07:05:33.877Z,70.30
2018-09-15T07:08:00.891Z,70.30
2018-09-15T07:10:28.881Z,70.20
2018-09-15T07:12:56.269Z,70.30
2018-09-15T07:15:22.959Z,70.10
2018-09-15T07:17:49.784Z,70.30
2018-09-15T07:20:16.767Z,70.30
2018-09-15T07:22:43.595Z,70.30
2018-09-15T07:25:10.383Z,70.20
2018-09-15T07:27:37.105Z,70.30
2018-09-15T07:30:04.084Z,70.30
2018-09-15T07:32:31.889Z,70.30
2018-09-15T07:34:58.903Z,70.40
2018-09-15T07:37:25.941Z,70.40
2018-09-15T07:39:52.718Z,70.50
2018-09-15T07:42:19.383Z,70.50
2018-09-15T07:44:46.205Z,70.50
2018-09-15T07:47:13.205Z,70.50
2018-09-15T07:49:40.097Z,70.60
2018-09-15T07:52:06.839Z,70.60
2018-09-15T07:54:33.567Z,70.60
2018-09-15T07:57:01.009Z,70.50
2018-09-15T07:59:27.900Z,70.70
2018-09-15T08:01:54.846Z,70.60
2018-09-15T08:04:21.559Z,70.70
2018-09-15T08:06:48.277Z,70.60
2018-09-15T08:09:15.033Z,70.70
2018-09-15T08:11:41.795Z,70.70
2018-09-15T08:14:09.321Z,70.70
2018-09-15T08:16:36.205Z,70.80
2018-09-15T08:19:03.083Z,70.80
2018-09-15T08:21:30.585Z,70.80
2018-09-15T08:23:57.303Z,70.80
2018-09-15T08:26:24.266Z,70.90
2018-09-15T08:28:51.158Z,70.90
2018-09-15T08:31:17.999Z,71.00
2018-09-15T08:33:44.686Z,71.00
2018-09-15T08:36:11.372Z,70.90
2018-09-15T08:38:38.121Z,71.00
2018-09-15T08:41:04.880Z,71.00
2018-09-15T08:43:31.672Z,71.00
2018-09-15T08:45:58.492Z,70.90
2018-09-15T08:48:25.513Z,70.90
2018-09-15T08:50:52.304Z,71.00
2018-09-15T08:53:19.154Z,71.00
2018-09-15T08:55:46.027Z,71.70
2018-09-15T08:58:13.010Z,71.00
2018-09-15T09:00:39.718Z,70.90
2018-09-15T09:03:06.668Z,70.90
2018-09-15T09:05:34.031Z,70.90
2018-09-15T09:08:00.928Z,70.90
2018-09-15T09:10:27.672Z,70.90
2018-09-15T09:12:54.534Z,70.90
2018-09-15T09:15:22.110Z,70.80
2018-09-15T09:17:49.289Z,70.90
2018-09-15T09:20:16.194Z,70.80
2018-09-15T09:22:43.773Z,71.60
2018-09-15T09:25:10.602Z,70.80
2018-09-15T09:27:37.444Z,70.80
2018-09-15T09:30:04.222Z,70.90
2018-09-15T09:32:31.268Z,70.80
2018-09-15T09:34:58.651Z,70.80
2018-09-15T09:37:25.434Z,70.80
2018-09-15T09:39:52.277Z,70.80
2018-09-15T09:42:19.255Z,70.70
2018-09-15T09:44:46.354Z,70.80
2018-09-15T09:47:13.335Z,70.60
2018-09-15T09:49:40.169Z,71.40
2018-09-15T09:52:07.591Z,70.70
2018-09-15T09:54:34.387Z,70.70
2018-09-15T09:57:01.167Z,70.70
2018-09-15T09:59:27.858Z,70.80
2018-09-15T10:02:00.131Z,70.70
2018-09-15T10:04:27.047Z,70.70
2018-09-15T10:06:53.955Z,70.60
2018-09-15T10:09:20.645Z,70.80
2018-09-15T10:11:47.459Z,70.70
2018-09-15T10:14:14.122Z,70.70
2018-09-15T10:16:40.846Z,70.70
2018-09-15T10:19:08.385Z,70.70
2018-09-15T10:21:35.245Z,70.80
2018-09-15T10:24:02.247Z,70.60
2018-09-15T10:26:29.286Z,70.60
2018-09-15T10:28:56.215Z,70.50
2018-09-15T10:31:23.211Z,70.70
2018-09-15T10:33:50.029Z,70.60
2018-09-15T10:36:18.096Z,70.40
2018-09-15T10:38:45.001Z,70.60
2018-09-15T10:41:11.896Z,70.50
2018-09-15T10:43:38.790Z,70.60
2018-09-15T10:46:05.587Z,70.50
2018-09-15T10:48:32.389Z,70.50
2018-09-15T10:50:59.134Z,70.50
2018-09-15T10:53:25.905Z,70.50
2018-09-15T10:55:53.654Z,70.50
2018-09-15T10:58:20.638Z,70.40
2018-09-15T11:00:47.389Z,70.40
2018-09-15T11:03:14.225Z,70.40
2018-09-15T11:05:41.096Z,70.40
2018-09-15T11:08:07.994Z,70.40
2018-09-15T11:10:34.884Z,70.30
2018-09-15T11:13:02.838Z,70.20
2018-09-15T11:15:29.504Z,70.30
2018-09-15T11:17:56.240Z,70.30
2018-09-15T11:20:24.267Z,70.30
2018-09-15T11:22:51.175Z,70.20
2018-09-15T11:25:17.841Z,70.10
2018-09-15T11:27:44.631Z,70.20
2018-09-15T11:30:11.642Z,70.20
2018-09-15T11:32:38.457Z,70.20
2018-09-15T11:35:05.265Z,70.20
2018-09-15T11:37:32.189Z,70.20
2018-09-15T11:39:58.937Z,70.10
2018-09-15T11:42:25.734Z,70.10
2018-09-15T11:44:52.518Z,70.10
2018-09-15T11:47:19.758Z,70.10
2018-09-15T11:49:46.454Z,70.00
2018-09-15T11:52:13.196Z,70.00
2018-09-15T11:54:40.093Z,70.00
2018-09-15T11:57:06.785Z,69.90
2018-09-15T11:59:33.636Z,70.00
2018-09-15T12:02:00.634Z,70.00
2018-09-15T12:04:27.329Z,70.00
2018-09-15T12:06:54.057Z,70.00
2018-09-15T12:09:20.959Z,69.80
2018-09-15T12:11:47.917Z,69.80
2018-09-15T12:14:14.741Z,69.80
2018-09-15T12:16:41.423Z,70.30
2018-09-15T12:19:08.102Z,70.60
2018-09-15T12:21:34.957Z,69.80
2018-09-15T12:24:01.781Z,69.80
2018-09-15T12:26:28.584Z,69.70
2018-09-15T12:28:56.202Z,69.70
2018-09-15T12:31:23.272Z,69.60
2018-09-15T12:33:50.847Z,69.60
2018-09-15T12:36:17.687Z,70.40
2018-09-15T12:38:44.618Z,69.60
2018-09-15T12:41:11.466Z,69.60
2018-09-15T12:43:38.175Z,69.50
2018-09-15T12:46:05.497Z,69.50
2018-09-15T12:48:32.465Z,69.50
2018-09-15T12:50:59.313Z,69.50
2018-09-15T12:53:26.033Z,69.40
2018-09-15T12:55:52.889Z,69.50
2018-09-15T12:58:20.372Z,69.40
2018-09-15T13:00:47.555Z,69.40
2018-09-15T13:03:14.609Z,69.40
2018-09-15T13:05:41.325Z,69.60
2018-09-15T13:08:08.213Z,69.20
2018-09-15T13:10:34.964Z,69.40
2018-09-15T13:13:01.763Z,69.30
2018-09-15T13:15:28.612Z,69.20
2018-09-15T13:17:55.926Z,69.30
2018-09-15T13:20:22.696Z,69.00
2018-09-15T13:22:49.567Z,69.20
2018-09-15T13:25:16.847Z,69.00
2018-09-15T13:27:43.829Z,69.20
2018-09-15T13:30:10.814Z,69.40
2018-09-15T13:32:37.537Z,69.00
2018-09-15T13:35:04.475Z,69.00
2018-09-15T13:37:31.291Z,69.00
2018-09-15T13:39:59.373Z,69.00
2018-09-15T13:42:26.139Z,68.90
2018-09-15T13:44:52.978Z,68.90
2018-09-15T13:47:20.593Z,68.90
2018-09-15T13:49:47.356Z,68.80
2018-09-15T13:52:14.153Z,68.70
2018-09-15T13:54:41.487Z,68.90
2018-09-15T13:57:08.195Z,68.60
2018-09-15T13:59:35.841Z,68.70
2018-09-15T14:02:03.295Z,68.60
2018-09-15T14:04:30.071Z,68.70
2018-09-15T14:06:56.872Z,68.50
2018-09-15T14:09:24.162Z,68.50
2018-09-15T14:11:50.970Z,68.40
2018-09-15T14:14:18.700Z,68.90
2018-09-15T14:16:45.612Z,68.30
2018-09-15T14:19:12.416Z,68.50
2018-09-15T14:21:39.642Z,69.10
2018-09-15T14:24:06.365Z,68.40
2018-09-15T14:26:33.286Z,68.30
2018-09-15T14:29:00.206Z,68.30
2018-09-15T14:31:27.928Z,68.30
2018-09-15T14:33:54.705Z,68.20
2018-09-15T14:36:21.808Z,68.10
2018-09-15T14:38:49.575Z,68.20
2018-09-15T14:41:16.351Z,68.20
2018-09-15T14:43:44.517Z,68.10
2018-09-15T14:46:11.293Z,68.10
2018-09-15T14:48:37.988Z,68.00
2018-09-15T14:51:04.748Z,68.00
2018-09-15T14:53:31.643Z,68.10
2018-09-15T14:55:58.454Z,68.00
2018-09-15T14:58:25.255Z,68.00
2018-09-15T15:00:52.074Z,68.80
2018-09-15T15:03:18.911Z,67.90
2018-09-15T15:05:46.335Z,67.80
2018-09-15T15:08:13.265Z,68.00
2018-09-15T15:10:40.166Z,67.80
2018-09-15T15:13:07.092Z,67.80
2018-09-15T15:15:34.038Z,67.80
2018-09-15T15:18:00.918Z,67.70
2018-09-15T15:20:27.638Z,67.70
2018-09-15T15:22:54.933Z,67.70
2018-09-15T15:25:22.033Z,67.60
2018-09-15T15:27:48.972Z,67.50
2018-09-15T15:30:16.028Z,67.60
2018-09-15T15:32:44.224Z,67.60
2018-09-15T15:35:11.118Z,67.70
2018-09-15T15:37:37.833Z,67.60
2018-09-15T15:40:04.562Z,67.50
2018-09-15T15:42:31.293Z,67.50
2018-09-15T15:44:57.965Z,67.50
2018-09-15T15:47:24.641Z,68.30
2018-09-15T15:49:51.345Z,67.50
2018-09-15T15:52:18.241Z,67.40
2018-09-15T15:54:45.133Z,67.50
2018-09-15T15:57:11.984Z,67.40
2018-09-15T15:59:38.717Z,67.50
2018-09-15T16:02:05.415Z,67.40
2018-09-15T16:04:32.427Z,67.40
2018-09-15T16:06:59.268Z,67.40
2018-09-15T16:09:26.001Z,67.40
2018-09-15T16:11:52.923Z,67.40
2018-09-15T16:14:20.408Z,67.30
2018-09-15T16:16:47.151Z,67.40
2018-09-15T16:19:13.985Z,67.40
2018-09-15T16:21:41.537Z,67.40
2018-09-15T16:24:08.344Z,68.00
2018-09-15T16:26:35.276Z,67.30
2018-09-15T16:29:02.761Z,67.50
2018-09-15T16:31:29.569Z,67.50
2018-09-15T16:33:56.443Z,67.60
2018-09-15T16:36:23.171Z,67.70
2018-09-15T16:38:49.888Z,67.50
2018-09-15T16:41:16.672Z,67.50
2018-09-15T16:43:44.390Z,67.50
2018-09-15T16:46:11.410Z,67.50
2018-09-15T16:48:38.188Z,67.60
2018-09-15T16:51:05.063Z,67.60
2018-09-15T16:53:32.004Z,67.60
2018-09-15T16:55:59.982Z,67.60
2018-09-15T16:58:26.702Z,67.30
2018-09-15T17:00:54.899Z,67.60
2018-09-15T17:03:21.742Z,67.60
2018-09-15T17:05:50.532Z,67.70
2018-09-15T17:08:18.360Z,67.70
2018-09-15T17:10:45.372Z,67.70
2018-09-15T17:13:12.251Z,67.70
2018-09-15T17:15:39.027Z,67.80
2018-09-15T17:18:05.719Z,67.80
2018-09-15T17:20:32.680Z,67.80
2018-09-15T17:22:59.460Z,67.80
2018-09-15T17:25:26.325Z,67.70
2018-09-15T17:27:53.837Z,67.80
2018-09-15T17:30:20.827Z,67.80
2018-09-15T17:32:47.795Z,67.80
2018-09-15T17:35:15.329Z,67.70
2018-09-15T17:37:42.381Z,67.80
2018-09-15T17:40:09.288Z,67.80
2018-09-15T17:42:36.005Z,67.70
2018-09-15T17:45:02.823Z,67.80
2018-09-15T17:47:30.390Z,67.80
2018-09-15T17:49:57.129Z,67.80
2018-09-15T17:52:24.025Z,67.80
2018-09-15T17:54:51.062Z,67.70
2018-09-15T17:57:17.992Z,67.70
2018-09-15T17:59:44.744Z,67.80
2018-09-15T18:02:12.364Z,67.90
2018-09-15T18:04:39.217Z,67.80
2018-09-15T18:07:05.957Z,67.80
2018-09-15T18:09:32.838Z,67.80
2018-09-15T18:11:59.698Z,67.90
2018-09-15T18:14:26.463Z,67.90
2018-09-15T18:16:53.499Z,67.80
2018-09-15T18:19:20.370Z,67.90
2018-09-15T18:21:47.222Z,67.90
2018-09-15T18:24:13.962Z,67.80
2018-09-15T18:26:40.854Z,67.80
2018-09-15T18:29:07.609Z,67.90
2018-09-15T18:31:34.299Z,67.80
2018-09-15T18:34:01.240Z,67.90
2018-09-15T18:36:28.074Z,67.70
2018-09-15T18:38:54.868Z,67.70
2018-09-15T18:41:21.543Z,67.80
2018-09-15T18:43:49.019Z,67.80
2018-09-15T18:46:21.163Z,67.70
2018-09-15T18:48:47.854Z,67.80
2018-09-15T18:51:14.546Z,67.80
2018-09-15T18:53:41.284Z,67.80
2018-09-15T18:56:08.316Z,67.80
2018-09-15T18:58:34.967Z,67.80
2018-09-15T19:01:01.739Z,67.70
2018-09-15T19:03:28.701Z,67.70
2018-09-15T19:05:55.474Z,68.50
2018-09-15T19:08:22.121Z,67.70
2018-09-15T19:10:48.819Z,67.70
2018-09-15T19:13:15.673Z,67.70
2018-09-15T19:15:42.560Z,67.70
2018-09-15T19:18:09.558Z,67.70
2018-09-15T19:20:36.352Z,67.70
2018-09-15T19:23:03.346Z,67.70
2018-09-15T19:25:30.190Z,67.80
2018-09-15T19:27:56.989Z,67.80
2018-09-15T19:30:23.807Z,67.80
2018-09-15T19:32:50.620Z,67.80
2018-09-15T19:35:17.462Z,67.70
2018-09-15T19:37:44.359Z,67.80
2018-09-15T19:40:11.175Z,68.60
2018-09-15T19:42:37.880Z,67.70
2018-09-15T19:45:04.762Z,67.70
2018-09-15T19:47:31.471Z,67.70
2018-09-15T19:49:58.992Z,67.60
2018-09-15T19:52:26.085Z,67.80
2018-09-15T19:54:52.873Z,67.80
2018-09-15T19:57:19.639Z,67.80
2018-09-15T19:59:46.490Z,67.90
2018-09-15T20:02:13.247Z,67.80
2018-09-15T20:04:40.168Z,67.90
2018-09-15T20:07:06.850Z,68.20
2018-09-15T20:09:33.556Z,67.80
2018-09-15T20:12:00.216Z,67.90
2018-09-15T20:14:27.006Z,68.60
2018-09-15T20:16:53.958Z,67.90
2018-09-15T20:19:20.688Z,67.90
2018-09-15T20:21:47.378Z,67.90
2018-09-15T20:24:14.116Z,67.90
2018-09-15T20:26:40.861Z,68.00
2018-09-15T20:29:07.584Z,68.00
2018-09-15T20:31:34.378Z,67.90
2018-09-15T20:34:01.753Z,68.00
2018-09-15T20:36:28.428Z,68.00
2018-09-15T20:38:55.790Z,68.00
2018-09-15T20:41:23.579Z,68.00
2018-09-15T20:43:50.280Z,68.00
2018-09-15T20:46:16.979Z,68.00
2018-09-15T20:48:43.772Z,68.00
2018-09-15T20:51:10.577Z,68.90
2018-09-15T20:53:37.623Z,68.10
2018-09-15T20:56:04.983Z,68.20
2018-09-15T20:58:31.631Z,68.00
2018-09-15T21:00:58.292Z,68.10
2018-09-15T21:03:25.024Z,68.20
2018-09-15T21:05:51.731Z,68.10
2018-09-15T21:08:18.598Z,68.00
2018-09-15T21:10:45.281Z,68.10
2018-09-15T21:13:12.272Z,68.10
2018-09-15T21:15:38.997Z,68.20
2018-09-15T21:18:05.816Z,68.10
2018-09-15T21:20:32.596Z,68.20
2018-09-15T21:22:59.285Z,68.20
2018-09-15T21:25:26.131Z,68.20
2018-09-15T21:27:53.039Z,68.30
2018-09-15T21:30:19.732Z,68.20
2018-09-15T21:32:46.816Z,68.30
2018-09-15T21:35:13.716Z,68.30
2018-09-15T21:37:40.590Z,68.30
2018-09-15T21:40:07.460Z,68.30
2018-09-15T21:42:34.235Z,68.20
2018-09-15T21:45:01.184Z,68.20
2018-09-15T21:47:27.936Z,68.20
2018-09-15T21:49:54.628Z,68.30
2018-09-15T21:52:22.084Z,68.30
2018-09-15T21:54:49.006Z,68.30
2018-09-15T21:57:15.746Z,69.10
2018-09-15T21:59:42.470Z,68.30
2018-09-15T22:02:09.170Z,68.40
2018-09-15T22:04:35.868Z,68.30
2018-09-15T22:07:02.745Z,68.30
2018-09-15T22:09:29.639Z,68.40
2018-09-15T22:11:57.143Z,68.30
2018-09-15T22:14:23.838Z,68.40
2018-09-15T22:16:50.598Z,68.50
2018-09-15T22:19:17.294Z,68.40
2018-09-15T22:21:44.036Z,68.40
2018-09-15T22:24:10.804Z,68.40
2018-09-15T22:26:37.698Z,68.50
2018-09-15T22:29:04.644Z,68.40
2018-09-15T22:31:31.297Z,68.30
2018-09-15T22:33:58.823Z,68.50
2018-09-15T22:36:25.521Z,68.50
2018-09-15T22:38:52.185Z,68.50
2018-09-15T22:41:18.848Z,68.50
2018-09-15T22:43:45.691Z,68.20
2018-09-15T22:46:12.417Z,68.50
2018-09-15T22:48:39.458Z,68.30
2018-09-15T22:51:06.295Z,68.50
2018-09-15T22:53:33.584Z,68.50
2018-09-15T22:56:00.879Z,68.50
2018-09-15T22:58:28.505Z,68.50
2018-09-15T23:00:55.235Z,68.60
2018-09-15T23:03:21.935Z,69.30
2018-09-15T23:05:48.605Z,68.60
2018-09-15T23:08:15.570Z,68.50
2018-09-15T23:10:42.289Z,68.40
2018-09-15T23:13:09.115Z,68.60
2018-09-15T23:15:35.800Z,68.50
2018-09-15T23:18:02.535Z,68.60
2018-09-15T23:20:29.221Z,68.60
2018-09-15T23:22:55.915Z,68.60
2018-09-15T23:25:22.781Z,68.60
2018-09-15T23:27:49.526Z,69.00
2018-09-15T23:30:16.428Z,68.50
2018-09-15T23:32:43.242Z,68.70
2018-09-15T23:35:10.682Z,68.70
2018-09-15T23:37:38.019Z,68.60
2018-09-15T23:40:04.714Z,68.70
2018-09-15T23:42:31.383Z,68.80
2018-09-15T23:44:58.645Z,68.80
2018-09-15T23:47:25.405Z,68.60
2018-09-15T23:49:52.750Z,68.60
2018-09-15T23:52:19.548Z,68.70
2018-09-15T23:54:46.206Z,68.80
2018-09-15T23:57:12.852Z,68.70
2018-09-15T23:59:40.227Z,68.80
